createdAt,value
2018-07-13T00:02:00.825Z,7.53
2018-07-13T00:04:28.167Z,7.00
2018-07-13T00:06:55.611Z,7.57
2018-07-13T00:09:23.062Z,7.77
2018-07-13T00:11:50.514Z,7.60
2018-07-13T00:14:21.768Z,6.40
2018-07-13T00:16:50.345Z,6.60
2018-07-13T00:19:18.476Z,6.70
2018-07-13T00:21:45.968Z,7.23
2018-07-13T00:24:13.308Z,7.17
2018-07-13T00:26:40.983Z,7.73
2018-07-13T00:29:08.775Z,7.27
2018-07-13T00:31:36.942Z,7.20
2018-07-13T00:34:04.266Z,8.10
2018-07-13T00:36:31.639Z,7.43
2018-07-13T00:38:59.079Z,7.07
2018-07-13T00:41:26.443Z,7.20
2018-07-13T00:43:54.032Z,7.07
2018-07-13T00:46:21.935Z,8.47
2018-07-13T00:48:49.269Z,8.23
2018-07-13T00:51:16.805Z,7.63
2018-07-13T00:53:44.771Z,7.13
2018-07-13T00:56:12.219Z,8.00
2018-07-13T00:58:39.678Z,7.80
2018-07-13T01:01:06.963Z,7.97
2018-07-13T01:03:34.396Z,8.03
2018-07-13T01:06:01.979Z,8.77
2018-07-13T01:08:29.320Z,7.80
2018-07-13T01:10:56.632Z,9.33
2018-07-13T01:13:23.988Z,8.30
2018-07-13T01:15:51.331Z,8.10
2018-07-13T01:18:18.645Z,9.00
2018-07-13T01:20:45.991Z,9.60
2018-07-13T01:23:13.502Z,8.90
2018-07-13T01:25:41.059Z,8.67
2018-07-13T01:28:08.535Z,9.47
2018-07-13T01:30:36.315Z,8.43
2018-07-13T01:33:04.064Z,8.23
2018-07-13T01:35:31.399Z,9.57
2018-07-13T01:37:58.731Z,9.80
2018-07-13T01:40:26.120Z,8.83
2018-07-13T01:42:53.515Z,8.73
2018-07-13T01:45:20.835Z,7.80
2018-07-13T01:47:48.476Z,8.90
2018-07-13T01:50:15.881Z,9.43
2018-07-13T01:52:43.520Z,9.30
2018-07-13T01:55:10.891Z,8.87
2018-07-13T01:57:38.306Z,8.83
2018-07-13T02:00:06.179Z,7.93
2018-07-13T02:02:33.647Z,8.80
2018-07-13T02:05:01.079Z,9.40
2018-07-13T02:07:28.500Z,9.13
2018-07-13T02:09:56.388Z,9.00
2018-07-13T02:12:23.966Z,9.00
2018-07-13T02:14:51.904Z,9.70
2018-07-13T02:17:19.559Z,9.20
2018-07-13T02:19:47.235Z,8.60
2018-07-13T02:22:14.655Z,8.87
2018-07-13T02:24:42.367Z,9.17
2018-07-13T02:27:09.846Z,9.80
2018-07-13T02:29:37.364Z,9.83
2018-07-13T02:32:04.745Z,9.30
2018-07-13T02:34:32.059Z,9.20
2018-07-13T02:36:59.368Z,9.00
2018-07-13T02:39:26.694Z,10.17
2018-07-13T02:41:54.260Z,9.60
2018-07-13T02:44:21.948Z,10.60
2018-07-13T02:46:49.614Z,11.13
2018-07-13T02:49:16.930Z,10.20
2018-07-13T02:51:44.239Z,10.47
2018-07-13T02:54:11.715Z,10.00
2018-07-13T02:56:39.040Z,10.03
2018-07-13T02:59:06.489Z,10.67
2018-07-13T03:01:33.834Z,9.33
2018-07-13T03:04:01.200Z,9.63
2018-07-13T03:06:28.652Z,10.43
2018-07-13T03:08:55.997Z,9.73
2018-07-13T03:11:23.389Z,9.83
2018-07-13T03:13:51.232Z,10.27
2018-07-13T03:16:18.610Z,10.00
2018-07-13T03:18:46.018Z,9.20
2018-07-13T03:21:13.375Z,12.23
2018-07-13T03:23:40.842Z,11.10
2018-07-13T03:26:08.207Z,10.27
2018-07-13T03:28:35.539Z,10.47
2018-07-13T03:31:02.934Z,10.60
2018-07-13T03:33:30.252Z,9.90
2018-07-13T03:35:57.741Z,12.23
2018-07-13T03:38:25.059Z,10.37
2018-07-13T03:40:52.436Z,10.77
2018-07-13T03:43:19.771Z,11.60
2018-07-13T03:45:47.127Z,10.77
2018-07-13T03:48:14.491Z,11.50
2018-07-13T03:50:41.843Z,10.67
2018-07-13T03:53:09.212Z,10.70
2018-07-13T03:55:36.648Z,10.00
2018-07-13T03:58:03.996Z,12.00
2018-07-13T04:00:31.444Z,11.20
2018-07-13T04:02:58.819Z,11.17
2018-07-13T04:05:26.183Z,10.23
2018-07-13T04:07:53.753Z,11.00
2018-07-13T04:10:21.093Z,12.00
2018-07-13T04:12:48.508Z,11.60
2018-07-13T04:15:16.098Z,11.87
2018-07-13T04:17:43.486Z,12.40
2018-07-13T04:20:10.824Z,11.60
2018-07-13T04:22:38.199Z,11.37
2018-07-13T04:25:05.811Z,13.33
2018-07-13T04:27:34.031Z,11.27
2018-07-13T04:30:01.433Z,11.23
2018-07-13T04:32:28.791Z,11.87
2018-07-13T04:34:56.172Z,11.57
2018-07-13T04:37:23.507Z,12.60
2018-07-13T04:39:50.887Z,12.10
2018-07-13T04:42:18.235Z,11.47
2018-07-13T04:44:45.562Z,11.50
2018-07-13T04:47:13.072Z,13.90
2018-07-13T04:49:40.535Z,13.00
2018-07-13T04:52:07.928Z,12.40
2018-07-13T04:54:35.367Z,13.60
2018-07-13T04:57:02.719Z,13.37
2018-07-13T04:59:30.025Z,12.73
2018-07-13T05:01:57.387Z,14.63
2018-07-13T05:04:24.743Z,13.73
2018-07-13T05:06:52.071Z,11.83
2018-07-13T05:09:19.459Z,13.17
2018-07-13T05:11:46.871Z,12.40
2018-07-13T05:14:14.494Z,14.00
2018-07-13T05:16:41.828Z,12.33
2018-07-13T05:19:09.203Z,12.10
2018-07-13T05:21:36.548Z,11.77
2018-07-13T05:24:03.899Z,12.20
2018-07-13T05:26:31.416Z,11.07
2018-07-13T05:28:59.091Z,11.30
2018-07-13T05:31:26.648Z,10.87
2018-07-13T05:33:53.995Z,10.00
2018-07-13T05:36:21.419Z,10.27
2018-07-13T05:38:48.805Z,9.43
2018-07-13T05:41:16.211Z,10.10
2018-07-13T05:43:43.843Z,9.33
2018-07-13T05:46:11.210Z,9.73
2018-07-13T05:48:39.264Z,9.23
2018-07-13T05:51:06.804Z,10.77
2018-07-13T05:53:34.172Z,9.03
2018-07-13T05:56:01.694Z,9.27
2018-07-13T05:58:29.035Z,10.97
2018-07-13T06:00:56.524Z,9.60
2018-07-13T06:03:23.895Z,8.10
2018-07-13T06:05:51.255Z,9.00
2018-07-13T06:08:18.622Z,9.83
2018-07-13T06:10:45.976Z,9.10
2018-07-13T06:13:13.306Z,9.43
2018-07-13T06:15:40.735Z,11.77
2018-07-13T06:18:08.126Z,13.40
2018-07-13T06:20:35.687Z,10.70
2018-07-13T06:23:03.076Z,11.67
2018-07-13T06:25:30.391Z,10.53
2018-07-13T06:27:57.751Z,10.30
2018-07-13T06:30:25.123Z,11.93
2018-07-13T06:32:52.572Z,11.17
2018-07-13T06:35:20.107Z,10.50
2018-07-13T06:37:47.583Z,9.33
2018-07-13T06:40:15.208Z,9.37
2018-07-13T06:42:42.600Z,13.40
2018-07-13T06:45:09.999Z,11.47
2018-07-13T06:47:37.355Z,10.90
2018-07-13T06:50:04.660Z,10.43
2018-07-13T06:52:32.032Z,10.67
2018-07-13T06:54:59.450Z,11.57
2018-07-13T06:57:32.471Z,10.50
2018-07-13T07:00:00.526Z,10.17
2018-07-13T07:02:33.503Z,9.50
2018-07-13T07:05:11.236Z,10.73
2018-07-13T07:07:38.643Z,9.30
2018-07-13T07:10:06.019Z,10.60
2018-07-13T07:12:42.790Z,8.53
2018-07-13T07:15:10.132Z,9.90
2018-07-13T07:17:37.555Z,8.70
2018-07-13T07:20:05.184Z,8.33
2018-07-13T07:22:32.491Z,8.40
2018-07-13T07:24:59.877Z,8.00
2018-07-13T07:27:27.196Z,7.30
2018-07-13T07:29:54.526Z,7.20
2018-07-13T07:32:21.934Z,8.50
2018-07-13T07:34:49.287Z,7.43
2018-07-13T07:37:16.639Z,8.30
2018-07-13T07:39:44.006Z,7.80
2018-07-13T07:42:11.347Z,7.73
2018-07-13T07:44:38.667Z,7.30
2018-07-13T07:47:06.279Z,9.50
2018-07-13T07:49:33.799Z,9.83
2018-07-13T07:52:01.139Z,10.03
2018-07-13T07:54:28.528Z,8.67
2018-07-13T07:56:55.895Z,8.40
2018-07-13T07:59:23.228Z,10.33
2018-07-13T08:01:50.632Z,9.53
2018-07-13T08:04:17.962Z,8.70
2018-07-13T08:06:45.631Z,7.43
2018-07-13T08:09:13.079Z,10.77
2018-07-13T08:11:40.511Z,11.60
2018-07-13T08:14:08.046Z,12.40
2018-07-13T08:16:35.240Z,14.17
2018-07-13T08:19:02.684Z,11.53
2018-07-13T08:21:30.056Z,13.00
2018-07-13T08:23:57.415Z,12.67
2018-07-13T08:26:24.876Z,10.83
2018-07-13T08:28:52.221Z,11.10
2018-07-13T08:31:19.644Z,12.40
2018-07-13T08:33:46.976Z,10.70
2018-07-13T08:36:14.455Z,11.20
2018-07-13T08:38:41.836Z,10.43
2018-07-13T08:41:09.267Z,11.33
2018-07-13T08:43:36.631Z,8.23
2018-07-13T08:46:04.013Z,8.17
2018-07-13T08:48:31.467Z,7.93
2018-07-13T08:50:58.906Z,8.70
2018-07-13T08:53:26.262Z,7.20
2018-07-13T08:55:53.622Z,9.27
2018-07-13T08:58:20.959Z,8.10
2018-07-13T09:00:48.437Z,7.23
2018-07-13T09:03:15.772Z,7.03
2018-07-13T09:05:43.113Z,6.93
2018-07-13T09:08:10.438Z,6.00
2018-07-13T09:10:38.068Z,7.97
2018-07-13T09:13:05.636Z,6.90
2018-07-13T09:15:32.967Z,7.80
2018-07-13T09:18:00.323Z,7.00
2018-07-13T09:20:27.659Z,8.70
2018-07-13T09:22:55.017Z,6.50
2018-07-13T09:25:22.555Z,5.57
2018-07-13T09:27:49.935Z,4.80
2018-07-13T09:30:17.359Z,5.13
2018-07-13T09:32:44.687Z,6.07
2018-07-13T09:35:12.033Z,7.00
2018-07-13T09:37:39.371Z,7.60
2018-07-13T09:40:06.907Z,6.50
2018-07-13T09:42:34.696Z,7.40
2018-07-13T09:45:02.048Z,6.83
2018-07-13T09:47:29.377Z,6.03
2018-07-13T09:49:56.747Z,5.70
2018-07-13T09:52:24.096Z,5.97
2018-07-13T09:54:51.462Z,5.40
2018-07-13T09:57:18.843Z,5.80
2018-07-13T09:59:46.172Z,3.80
2018-07-13T10:02:13.820Z,3.90
2018-07-13T10:04:41.140Z,3.20
2018-07-13T10:07:08.604Z,4.20
2018-07-13T10:09:36.008Z,4.20
2018-07-13T10:12:03.488Z,4.73
2018-07-13T10:14:30.872Z,3.10
2018-07-13T10:16:58.244Z,2.97
2018-07-13T10:19:25.708Z,2.40
2018-07-13T10:21:53.043Z,3.03
2018-07-13T10:24:20.997Z,3.47
2018-07-13T10:26:48.383Z,3.60
2018-07-13T10:29:18.952Z,2.67
2018-07-13T10:31:46.372Z,4.13
2018-07-13T10:34:13.807Z,4.20
2018-07-13T10:36:43.467Z,4.10
2018-07-13T10:39:10.962Z,4.37
2018-07-13T10:41:38.376Z,4.23
2018-07-13T10:44:05.791Z,4.60
2018-07-13T10:46:33.467Z,3.77
2018-07-13T10:49:00.796Z,4.03
2018-07-13T10:51:28.295Z,4.33
2018-07-13T10:53:55.627Z,4.10
2018-07-13T10:56:24.319Z,3.80
2018-07-13T10:58:51.883Z,3.10
2018-07-13T11:01:19.460Z,2.63
2018-07-13T11:03:47.006Z,3.00
2018-07-13T11:06:14.339Z,2.80
2018-07-13T11:08:41.874Z,3.63
2018-07-13T11:11:09.316Z,3.93
2018-07-13T11:13:36.811Z,3.33
2018-07-13T11:16:04.092Z,3.00
2018-07-13T11:18:31.754Z,3.93
2018-07-13T11:20:59.191Z,3.30
2018-07-13T11:23:26.526Z,4.13
2018-07-13T11:25:54.101Z,3.63
2018-07-13T11:28:21.432Z,3.87
2018-07-13T11:30:48.810Z,2.87
2018-07-13T11:33:16.172Z,3.43
2018-07-13T11:35:43.547Z,2.80
2018-07-13T11:38:10.920Z,2.77
2018-07-13T11:40:38.232Z,3.17
2018-07-13T11:43:05.556Z,3.90
2018-07-13T11:45:33.044Z,4.07
2018-07-13T11:48:00.456Z,4.10
2018-07-13T11:50:27.926Z,4.10
2018-07-13T11:52:55.282Z,4.30
2018-07-13T11:55:22.740Z,4.30
2018-07-13T11:57:50.136Z,4.00
2018-07-13T12:00:17.473Z,3.13
2018-07-13T12:02:44.872Z,3.47
2018-07-13T12:05:12.263Z,3.60
2018-07-13T12:07:39.800Z,2.83
2018-07-13T12:10:07.121Z,3.27
2018-07-13T12:12:34.567Z,3.07
2018-07-13T12:15:01.886Z,2.73
2018-07-13T12:17:29.517Z,3.63
2018-07-13T12:19:56.990Z,2.87
2018-07-13T12:22:24.281Z,3.00
2018-07-13T12:24:51.816Z,3.10
2018-07-13T12:27:19.175Z,3.30
2018-07-13T12:29:46.519Z,3.07
2018-07-13T12:32:13.899Z,3.87
2018-07-13T12:34:41.239Z,3.30
2018-07-13T12:37:08.696Z,4.30
2018-07-13T12:39:36.083Z,4.80
2018-07-13T12:42:03.446Z,5.37
2018-07-13T12:44:30.850Z,5.60
2018-07-13T12:46:58.199Z,5.30
2018-07-13T12:49:25.640Z,4.53
2018-07-13T12:51:53.007Z,5.20
2018-07-13T12:54:20.436Z,3.83
2018-07-13T12:56:47.748Z,4.20
2018-07-13T12:59:15.220Z,4.43
2018-07-13T13:01:42.639Z,4.20
2018-07-13T13:04:10.180Z,5.00
2018-07-13T13:06:37.557Z,4.10
2018-07-13T13:09:05.450Z,3.77
2018-07-13T13:11:32.911Z,4.00
2018-07-13T13:14:00.363Z,3.30
2018-07-13T13:16:27.879Z,3.97
2018-07-13T13:18:55.219Z,4.00
2018-07-13T13:21:22.603Z,4.40
2018-07-13T13:23:56.571Z,4.23
2018-07-13T13:26:23.878Z,4.13
2018-07-13T13:28:51.236Z,4.13
2018-07-13T13:31:18.596Z,5.47
2018-07-13T13:33:46.202Z,4.30
2018-07-13T13:36:13.831Z,4.13
2018-07-13T13:38:41.127Z,3.63
2018-07-13T13:41:08.455Z,3.90
2018-07-13T13:43:35.759Z,3.80
2018-07-13T13:46:03.115Z,3.83
2018-07-13T13:48:30.764Z,3.57
2018-07-13T13:50:58.348Z,3.60
2018-07-13T13:53:25.681Z,3.57
2018-07-13T13:55:53.127Z,3.80
2018-07-13T13:58:20.609Z,3.60
2018-07-13T14:00:47.947Z,3.07
2018-07-13T14:03:15.311Z,4.00
2018-07-13T14:05:42.899Z,3.90
2018-07-13T14:08:10.459Z,4.30
2018-07-13T14:10:38.113Z,3.93
2018-07-13T14:13:05.444Z,3.40
2018-07-13T14:15:32.811Z,4.07
2018-07-13T14:18:00.212Z,3.60
2018-07-13T14:20:27.723Z,3.60
2018-07-13T14:22:55.083Z,3.73
2018-07-13T14:25:22.447Z,3.63
2018-07-13T14:27:49.819Z,3.60
2018-07-13T14:30:17.258Z,3.63
2018-07-13T14:32:44.591Z,4.03
2018-07-13T14:35:11.996Z,3.80
2018-07-13T14:37:39.366Z,3.43
2018-07-13T14:40:06.918Z,2.80
2018-07-13T14:42:34.356Z,3.10
2018-07-13T14:45:01.683Z,3.33
2018-07-13T14:47:29.140Z,2.47
2018-07-13T14:49:56.538Z,2.90
2018-07-13T14:52:24.063Z,2.87
2018-07-13T14:54:51.399Z,3.90
2018-07-13T14:57:18.939Z,3.60
2018-07-13T14:59:46.408Z,3.90
2018-07-13T15:02:19.438Z,4.70
2018-07-13T15:04:46.871Z,4.63
2018-07-13T15:07:14.192Z,4.13
2018-07-13T15:09:41.639Z,4.63
2018-07-13T15:12:09.238Z,3.80
2018-07-13T15:14:36.661Z,4.00
2018-07-13T15:17:04.105Z,3.63
2018-07-13T15:19:31.515Z,3.90
2018-07-13T15:21:58.951Z,3.60
2018-07-13T15:24:26.288Z,4.27
2018-07-13T15:26:53.676Z,4.27
2018-07-13T15:29:21.145Z,3.37
2018-07-13T15:31:54.974Z,4.00
2018-07-13T15:34:22.308Z,3.60
2018-07-13T15:36:49.651Z,3.90
2018-07-13T15:39:23.431Z,13.83
2018-07-13T15:41:50.787Z,5.20
2018-07-13T15:44:18.151Z,10.93
2018-07-13T15:46:45.800Z,4.73
2018-07-13T15:49:13.268Z,3.80
2018-07-13T15:51:40.630Z,3.50
2018-07-13T15:54:08.058Z,3.73
2018-07-13T15:56:35.391Z,3.57
2018-07-13T15:59:02.703Z,3.80
2018-07-13T16:01:30.055Z,3.87
2018-07-13T16:03:57.409Z,3.47
2018-07-13T16:06:24.847Z,3.20
2018-07-13T16:08:52.182Z,4.10
2018-07-13T16:11:19.520Z,3.87
2018-07-13T16:13:46.887Z,4.60
2018-07-13T16:16:14.353Z,3.67
2018-07-13T16:18:41.702Z,3.93
2018-07-13T16:21:09.148Z,3.83
2018-07-13T16:23:36.519Z,3.50
2018-07-13T16:26:03.886Z,3.30
2018-07-13T16:28:31.244Z,3.33
2018-07-13T16:30:58.591Z,3.73
2018-07-13T16:33:25.971Z,3.87
2018-07-13T16:35:53.289Z,3.70
2018-07-13T16:38:20.677Z,3.73
2018-07-13T16:40:48.023Z,3.80
2018-07-13T16:43:15.392Z,4.00
2018-07-13T16:45:42.897Z,4.40
2018-07-13T16:48:10.274Z,4.30
2018-07-13T16:50:37.637Z,3.13
2018-07-13T16:53:04.988Z,4.63
2018-07-13T16:55:32.321Z,3.67
2018-07-13T16:57:59.903Z,3.57
2018-07-13T17:00:27.220Z,4.10
2018-07-13T17:02:54.601Z,5.27
2018-07-13T17:05:21.967Z,4.47
2018-07-13T17:07:49.412Z,4.13
2018-07-13T17:10:16.813Z,3.50
2018-07-13T17:12:44.635Z,3.60
2018-07-13T17:15:12.005Z,3.93
2018-07-13T17:17:39.404Z,3.10
2018-07-13T17:20:06.824Z,4.37
2018-07-13T17:22:34.188Z,3.27
2018-07-13T17:25:01.712Z,3.30
2018-07-13T17:27:29.131Z,3.37
2018-07-13T17:29:56.687Z,4.03
2018-07-13T17:32:24.279Z,3.50
2018-07-13T17:34:51.756Z,3.57
2018-07-13T17:37:19.107Z,3.30
2018-07-13T17:39:46.519Z,3.80
2018-07-13T17:42:13.903Z,3.10
2018-07-13T17:44:41.307Z,3.57
2018-07-13T17:47:08.919Z,3.30
2018-07-13T17:49:36.487Z,3.20
2018-07-13T17:52:03.935Z,3.23
2018-07-13T17:54:31.514Z,3.43
2018-07-13T17:56:58.955Z,3.30
2018-07-13T17:59:26.316Z,3.00
2018-07-13T18:01:53.775Z,3.40
2018-07-13T18:04:21.204Z,4.00
2018-07-13T18:06:48.633Z,3.00
2018-07-13T18:09:16.035Z,3.23
2018-07-13T18:11:44.298Z,2.70
2018-07-13T18:14:11.643Z,3.50
2018-07-13T18:16:39.140Z,3.67
2018-07-13T18:19:06.469Z,2.80
2018-07-13T18:21:33.832Z,3.03
2018-07-13T18:24:01.246Z,3.50
2018-07-13T18:26:28.682Z,4.40
2018-07-13T18:28:56.087Z,3.93
2018-07-13T18:31:23.435Z,3.50
2018-07-13T18:33:51.120Z,4.57
2018-07-13T18:36:18.584Z,4.00
2018-07-13T18:38:45.981Z,3.77
2018-07-13T18:41:14.305Z,3.63
2018-07-13T18:43:42.139Z,3.90
2018-07-13T18:46:09.610Z,3.87
2018-07-13T18:48:37.095Z,4.27
2018-07-13T18:51:04.417Z,4.10
2018-07-13T18:53:31.889Z,4.83
2018-07-13T18:55:59.219Z,4.27
2018-07-13T18:58:26.598Z,4.20
2018-07-13T19:00:54.075Z,4.43
2018-07-13T19:03:21.411Z,3.67
2018-07-13T19:05:48.829Z,3.93
2018-07-13T19:08:16.219Z,4.47
2018-07-13T19:10:43.655Z,5.70
2018-07-13T19:13:11.026Z,4.70
2018-07-13T19:15:38.379Z,3.73
2018-07-13T19:18:05.831Z,4.47
2018-07-13T19:20:33.307Z,4.10
2018-07-13T19:23:00.679Z,3.57
2018-07-13T19:25:28.105Z,3.57
2018-07-13T19:27:55.487Z,3.50
2018-07-13T19:30:23.004Z,3.63
2018-07-13T19:32:50.507Z,3.53
2018-07-13T19:35:17.832Z,3.17
2018-07-13T19:37:45.280Z,2.93
2018-07-13T19:40:12.630Z,3.40
2018-07-13T19:42:39.938Z,3.33
2018-07-13T19:45:07.346Z,3.63
2018-07-13T19:47:34.736Z,3.10
2018-07-13T19:50:02.101Z,3.90
2018-07-13T19:52:29.417Z,3.77
2018-07-13T19:54:56.781Z,3.43
2018-07-13T19:57:24.231Z,3.77
2018-07-13T19:59:51.457Z,3.70
2018-07-13T20:02:18.924Z,3.40
2018-07-13T20:04:46.388Z,3.73
2018-07-13T20:07:13.715Z,3.70
2018-07-13T20:09:41.345Z,3.47
2018-07-13T20:12:08.716Z,3.70
2018-07-13T20:14:36.243Z,3.73
2018-07-13T20:17:03.774Z,4.13
2018-07-13T20:19:31.067Z,3.47
2018-07-13T20:21:58.414Z,3.80
2018-07-13T20:24:25.777Z,3.87
2018-07-13T20:26:53.234Z,3.50
2018-07-13T20:29:20.744Z,4.27
2018-07-13T20:31:48.124Z,4.80
2018-07-13T20:34:15.449Z,3.60
2018-07-13T20:36:42.899Z,4.30
2018-07-13T20:39:10.303Z,3.97
2018-07-13T20:41:37.983Z,3.80
2018-07-13T20:44:05.655Z,4.30
2018-07-13T20:46:32.964Z,3.73
2018-07-13T20:49:00.497Z,4.20
2018-07-13T20:51:28.034Z,5.53
2018-07-13T20:53:55.443Z,4.30
2018-07-13T20:56:22.846Z,5.33
2018-07-13T20:58:50.212Z,5.40
2018-07-13T21:01:17.602Z,4.13
2018-07-13T21:03:45.088Z,4.60
2018-07-13T21:06:12.600Z,4.00
2018-07-13T21:08:40.032Z,4.27
2018-07-13T21:11:07.535Z,4.27
2018-07-13T21:13:34.859Z,3.73
2018-07-13T21:16:02.357Z,4.00
2018-07-13T21:18:29.801Z,3.87
2018-07-13T21:20:57.553Z,4.40
2018-07-13T21:23:24.977Z,3.90
2018-07-13T21:25:52.370Z,3.40
2018-07-13T21:28:19.739Z,4.00
2018-07-13T21:30:47.085Z,3.80
2018-07-13T21:33:14.632Z,4.33
2018-07-13T21:35:41.968Z,4.30
2018-07-13T21:38:10.166Z,4.70
2018-07-13T21:40:37.805Z,5.37
2018-07-13T21:43:05.178Z,4.93
2018-07-13T21:45:32.508Z,4.93
2018-07-13T21:48:00.152Z,3.90
2018-07-13T21:50:27.513Z,3.80
2018-07-13T21:52:55.133Z,4.13
2018-07-13T21:55:22.539Z,4.30
2018-07-13T21:57:50.852Z,4.53
2018-07-13T22:00:18.204Z,4.70
2018-07-13T22:02:45.643Z,3.87
2018-07-13T22:05:13.006Z,4.80
2018-07-13T22:07:40.355Z,4.10
2018-07-13T22:10:07.795Z,3.90
2018-07-13T22:12:35.157Z,5.07
2018-07-13T22:15:02.660Z,4.23
2018-07-13T22:17:30.016Z,4.37
2018-07-13T22:19:57.472Z,4.50
2018-07-13T22:22:24.877Z,5.90
2018-07-13T22:24:52.269Z,4.67
2018-07-13T22:27:19.529Z,5.30
2018-07-13T22:29:46.915Z,5.30
2018-07-13T22:32:14.407Z,5.20
2018-07-13T22:34:41.742Z,4.90
2018-07-13T22:37:09.231Z,4.97
2018-07-13T22:39:36.680Z,4.80
2018-07-13T22:42:04.052Z,5.77
2018-07-13T22:44:31.340Z,5.07
2018-07-13T22:46:58.686Z,5.00
2018-07-13T22:49:25.985Z,4.60
2018-07-13T22:51:53.379Z,6.23
2018-07-13T22:54:20.688Z,5.20
2018-07-13T22:56:48.356Z,5.00
2018-07-13T22:59:15.695Z,5.77
2018-07-13T23:01:43.067Z,5.60
2018-07-13T23:04:10.391Z,5.47
2018-07-13T23:06:37.984Z,5.90
2018-07-13T23:09:05.906Z,5.57
2018-07-13T23:11:33.301Z,5.87
2018-07-13T23:14:00.703Z,6.10
2018-07-13T23:16:27.996Z,5.83
2018-07-13T23:18:55.367Z,5.87
2018-07-13T23:21:22.711Z,5.70
2018-07-13T23:23:50.155Z,5.90
2018-07-13T23:26:17.438Z,6.33
2018-07-13T23:28:44.849Z,5.90
2018-07-13T23:31:12.387Z,5.80
2018-07-13T23:33:39.888Z,6.37
2018-07-13T23:36:07.204Z,6.50
2018-07-13T23:38:34.695Z,6.77
2018-07-13T23:41:02.139Z,6.23
2018-07-13T23:43:29.478Z,6.47
2018-07-13T23:45:56.907Z,7.70
2018-07-13T23:48:24.310Z,6.20
2018-07-13T23:50:51.655Z,6.50
2018-07-13T23:53:19.232Z,6.27
2018-07-13T23:55:46.709Z,6.67
2018-07-13T23:58:14.039Z,6.80
